createdAt,value
2022-07-25T00:00:20.138Z,20.31
2022-07-25T00:01:20.424Z,20.32
2022-07-25T00:02:20.567Z,20.34
2022-07-25T00:03:21.149Z,20.36
2022-07-25T00:04:21.410Z,20.36
2022-07-25T00:05:21.547Z,20.39
2022-07-25T00:06:21.738Z,20.40
2022-07-25T00:07:23.372Z,20.43
2022-07-25T00:08:20.647Z,20.43
2022-07-25T00:09:20.943Z,20.44
2022-07-25T00:10:23.142Z,20.44
2022-07-25T00:11:21.531Z,20.47
2022-07-25T00:12:23.716Z,20.48
2022-07-25T00:13:22.103Z,20.47
2022-07-25T00:14:24.293Z,20.47
2022-07-25T00:15:22.667Z,20.47
2022-07-25T00:16:24.941Z,20.50
2022-07-25T00:17:25.008Z,20.50
2022-07-25T00:18:23.635Z,20.51
2022-07-25T00:19:25.814Z,20.50
2022-07-25T00:20:25.995Z,20.48
2022-07-25T00:21:26.175Z,20.48
2022-07-25T00:22:26.358Z,20.50
2022-07-25T00:23:27.039Z,20.48
2022-07-25T00:24:25.423Z,20.48
2022-07-25T00:25:25.725Z,20.48
2022-07-25T00:26:27.917Z,20.50
2022-07-25T00:27:28.097Z,20.51
2022-07-25T00:28:29.738Z,20.51
2022-07-25T00:29:26.883Z,20.51
2022-07-25T00:30:30.527Z,20.51
2022-07-25T00:31:30.741Z,20.51
2022-07-25T00:32:30.899Z,20.51
2022-07-25T00:33:29.830Z,20.51
2022-07-25T00:34:29.218Z,20.51
2022-07-25T00:35:30.554Z,20.52
2022-07-25T00:36:30.743Z,20.52
2022-07-25T00:37:29.128Z,20.51
2022-07-25T00:38:29.438Z,20.50
2022-07-25T00:39:29.757Z,20.51
2022-07-25T00:40:31.943Z,20.51
2022-07-25T00:41:30.319Z,20.52
2022-07-25T00:42:32.527Z,20.55
2022-07-25T00:43:30.915Z,20.55
2022-07-25T00:44:31.220Z,20.56
2022-07-25T00:45:31.522Z,20.59
2022-07-25T00:46:33.768Z,20.59
2022-07-25T00:47:33.907Z,20.58
2022-07-25T00:48:33.285Z,20.58
2022-07-25T00:49:33.680Z,20.62
2022-07-25T00:50:33.825Z,20.63
2022-07-25T00:51:35.093Z,20.65
2022-07-25T00:52:35.281Z,20.66
2022-07-25T00:53:33.755Z,20.69
2022-07-25T00:54:34.011Z,20.67
2022-07-25T00:55:34.267Z,20.66
2022-07-25T00:56:36.454Z,20.70
2022-07-25T00:57:36.599Z,20.72
2022-07-25T00:58:35.110Z,20.72
2022-07-25T00:59:35.412Z,20.74
2022-07-25T01:00:35.725Z,20.74
2022-07-25T01:01:38.940Z,20.72
2022-07-25T01:02:36.224Z,20.72
2022-07-25T01:03:36.461Z,20.72
2022-07-25T01:04:36.702Z,20.74
2022-07-25T01:05:37.040Z,20.72
2022-07-25T01:06:41.217Z,20.72
2022-07-25T01:07:37.620Z,20.70
2022-07-25T01:08:37.934Z,20.72
2022-07-25T01:09:38.235Z,20.72
2022-07-25T01:10:38.544Z,20.74
2022-07-25T01:11:41.511Z,20.75
2022-07-25T01:12:39.082Z,20.77
2022-07-25T01:13:39.385Z,20.75
2022-07-25T01:14:39.703Z,20.75
2022-07-25T01:15:41.945Z,20.75
2022-07-25T01:16:40.178Z,20.80
2022-07-25T01:17:40.479Z,20.77
2022-07-25T01:18:40.789Z,20.78
2022-07-25T01:19:42.979Z,20.78
2022-07-25T01:20:43.154Z,20.75
2022-07-25T01:21:43.324Z,20.72
2022-07-25T01:22:43.528Z,20.74
2022-07-25T01:23:44.198Z,20.77
2022-07-25T01:24:44.386Z,20.80
2022-07-25T01:25:44.566Z,20.78
2022-07-25T01:26:45.219Z,20.82
2022-07-25T01:27:45.427Z,20.84
2022-07-25T01:28:45.593Z,20.85
2022-07-25T01:29:45.748Z,20.81
2022-07-25T01:30:46.000Z,20.84
2022-07-25T01:31:48.584Z,20.82
2022-07-25T01:32:46.820Z,20.81
2022-07-25T01:33:47.003Z,20.85
2022-07-25T01:34:47.162Z,20.85
2022-07-25T01:35:47.317Z,20.85
2022-07-25T01:36:48.098Z,20.85
2022-07-25T01:37:48.193Z,20.87
2022-07-25T01:38:46.702Z,20.84
2022-07-25T01:39:47.013Z,20.84
2022-07-25T01:40:49.184Z,20.82
2022-07-25T01:41:51.326Z,20.82
2022-07-25T01:42:47.873Z,20.84
2022-07-25T01:43:48.178Z,20.85
2022-07-25T01:44:48.494Z,20.87
2022-07-25T01:45:48.877Z,20.84
2022-07-25T01:46:51.015Z,20.85
2022-07-25T01:47:49.385Z,20.87
2022-07-25T01:48:49.831Z,20.87
2022-07-25T01:49:51.876Z,20.88
2022-07-25T01:50:52.177Z,20.95
2022-07-25T01:51:52.544Z,20.95
2022-07-25T01:52:50.815Z,20.97
2022-07-25T01:53:53.005Z,20.96
2022-07-25T01:54:53.183Z,20.96
2022-07-25T01:55:53.354Z,20.97
2022-07-25T01:56:53.544Z,20.97
2022-07-25T01:57:53.727Z,20.97
2022-07-25T01:58:54.416Z,20.99
2022-07-25T01:59:54.599Z,21.02
2022-07-25T02:00:54.786Z,21.02
2022-07-25T02:01:56.519Z,21.05
2022-07-25T02:02:55.681Z,21.03
2022-07-25T02:03:55.861Z,21.05
2022-07-25T02:04:56.069Z,21.06
2022-07-25T02:05:56.232Z,21.09
2022-07-25T02:06:56.996Z,21.14
2022-07-25T02:07:55.256Z,21.15
2022-07-25T02:08:57.450Z,21.14
2022-07-25T02:09:57.632Z,21.11
2022-07-25T02:10:56.152Z,21.07
2022-07-25T02:11:57.283Z,21.09
2022-07-25T02:12:58.585Z,21.07
2022-07-25T02:13:58.759Z,21.07
2022-07-25T02:14:57.391Z,21.11
2022-07-25T02:15:57.697Z,21.14
2022-07-25T02:17:01.893Z,21.14
2022-07-25T02:17:58.282Z,21.17
2022-07-25T02:19:00.470Z,21.21
2022-07-25T02:19:58.854Z,21.20
2022-07-25T02:20:59.164Z,21.15
2022-07-25T02:22:00.418Z,21.11
2022-07-25T02:22:59.802Z,21.06
2022-07-25T02:24:01.993Z,21.05
2022-07-25T02:25:00.365Z,21.07
2022-07-25T02:26:00.671Z,21.09
2022-07-25T02:27:04.826Z,21.05
2022-07-25T02:28:01.286Z,21.02
2022-07-25T02:29:03.424Z,21.00
2022-07-25T02:30:01.803Z,20.97
2022-07-25T02:31:02.170Z,20.95
2022-07-25T02:32:04.325Z,20.99
2022-07-25T02:33:02.597Z,20.99
2022-07-25T02:34:05.152Z,20.96
2022-07-25T02:35:03.155Z,20.96
2022-07-25T02:36:05.480Z,21.05
2022-07-25T02:37:07.638Z,21.09
2022-07-25T02:38:04.070Z,21.06
2022-07-25T02:39:06.258Z,21.05
2022-07-25T02:40:06.427Z,21.06
2022-07-25T02:41:05.764Z,21.05
2022-07-25T02:42:08.230Z,21.03
2022-07-25T02:43:05.525Z,21.05
2022-07-25T02:44:07.603Z,21.11
2022-07-25T02:45:07.994Z,21.11
2022-07-25T02:46:08.263Z,21.05
2022-07-25T02:47:09.542Z,21.03
2022-07-25T02:48:06.937Z,20.97
2022-07-25T02:49:07.306Z,20.96
2022-07-25T02:50:09.430Z,20.92
2022-07-25T02:51:08.731Z,20.85
2022-07-25T02:52:08.806Z,20.84
2022-07-25T02:53:08.305Z,20.92
2022-07-25T02:54:08.616Z,20.90
2022-07-25T02:55:10.800Z,21.06
2022-07-25T02:56:09.189Z,21.14
2022-07-25T02:57:10.368Z,21.07
2022-07-25T02:58:09.751Z,21.03
2022-07-25T02:59:10.080Z,20.97
2022-07-25T03:00:10.481Z,20.93
2022-07-25T03:01:12.649Z,20.88
2022-07-25T03:02:11.944Z,20.84
2022-07-25T03:03:11.191Z,20.81
2022-07-25T03:04:11.773Z,20.81
2022-07-25T03:05:13.690Z,20.78
2022-07-25T03:06:12.090Z,20.78
2022-07-25T03:07:12.409Z,20.80
2022-07-25T03:08:12.724Z,20.80
2022-07-25T03:09:13.045Z,20.81
2022-07-25T03:10:15.230Z,20.81
2022-07-25T03:11:13.628Z,20.81
2022-07-25T03:12:13.947Z,20.80
2022-07-25T03:13:14.255Z,20.77
2022-07-25T03:14:14.578Z,20.75
2022-07-25T03:15:16.750Z,20.78
2022-07-25T03:16:15.172Z,20.80
2022-07-25T03:17:15.475Z,20.80
2022-07-25T03:18:15.816Z,20.82
2022-07-25T03:19:16.152Z,20.82
2022-07-25T03:20:16.484Z,20.84
2022-07-25T03:21:18.660Z,20.84
2022-07-25T03:22:17.078Z,20.82
2022-07-25T03:23:17.420Z,20.84
2022-07-25T03:24:17.653Z,20.84
2022-07-25T03:25:21.772Z,20.82
2022-07-25T03:26:20.180Z,20.81
2022-07-25T03:27:20.351Z,20.81
2022-07-25T03:28:20.574Z,20.81
2022-07-25T03:29:19.224Z,20.81
2022-07-25T03:30:20.389Z,20.84
2022-07-25T03:31:21.673Z,20.84
2022-07-25T03:32:20.083Z,20.82
2022-07-25T03:33:22.259Z,20.84
2022-07-25T03:34:22.458Z,20.85
2022-07-25T03:35:20.863Z,20.87
2022-07-25T03:36:23.044Z,20.87
2022-07-25T03:37:25.204Z,20.87
2022-07-25T03:38:23.451Z,20.88
2022-07-25T03:39:23.622Z,20.88
2022-07-25T03:40:23.294Z,20.87
2022-07-25T03:41:24.471Z,20.90
2022-07-25T03:42:26.749Z,20.87
2022-07-25T03:43:25.317Z,20.96
2022-07-25T03:44:25.504Z,20.99
2022-07-25T03:45:25.777Z,20.99
2022-07-25T03:46:25.953Z,20.97
2022-07-25T03:47:26.074Z,20.97
2022-07-25T03:48:26.285Z,21.00
2022-07-25T03:49:26.920Z,21.06
2022-07-25T03:50:27.104Z,21.11
2022-07-25T03:51:27.272Z,21.11
2022-07-25T03:52:27.464Z,21.12
2022-07-25T03:53:28.149Z,21.18
2022-07-25T03:54:26.569Z,21.21
2022-07-25T03:55:26.838Z,21.22
2022-07-25T03:56:29.023Z,21.25
2022-07-25T03:57:29.177Z,21.29
2022-07-25T03:58:29.361Z,21.30
2022-07-25T03:59:29.545Z,21.35
2022-07-25T04:00:30.199Z,21.36
2022-07-25T04:01:30.453Z,21.37
2022-07-25T04:02:30.592Z,21.39
2022-07-25T04:03:30.719Z,21.36
2022-07-25T04:04:30.910Z,21.35
2022-07-25T04:05:31.612Z,21.32
2022-07-25T04:06:31.793Z,21.33
2022-07-25T04:07:30.338Z,21.30
2022-07-25T04:08:32.512Z,21.32
2022-07-25T04:09:31.063Z,21.33
2022-07-25T04:10:31.060Z,21.35
2022-07-25T04:11:33.208Z,21.35
2022-07-25T04:12:33.374Z,21.33
2022-07-25T04:13:33.549Z,21.32
2022-07-25T04:14:32.219Z,21.33
2022-07-25T04:15:34.398Z,21.30
2022-07-25T04:16:34.654Z,21.29
2022-07-25T04:17:34.813Z,21.27
2022-07-25T04:18:34.995Z,21.30
2022-07-25T04:19:33.591Z,21.30
2022-07-25T04:20:33.945Z,21.27
2022-07-25T04:21:34.165Z,21.27
2022-07-25T04:22:36.346Z,21.29
2022-07-25T04:23:34.642Z,21.29
2022-07-25T04:24:36.816Z,21.29
2022-07-25T04:25:35.106Z,21.27
2022-07-25T04:26:35.469Z,21.29
2022-07-25T04:27:39.587Z,21.29
2022-07-25T04:28:36.029Z,21.30
2022-07-25T04:29:36.370Z,21.35
2022-07-25T04:30:36.605Z,21.37
2022-07-25T04:31:38.841Z,21.40
2022-07-25T04:32:38.971Z,21.42
2022-07-25T04:33:37.383Z,21.45
2022-07-25T04:34:37.614Z,21.46
2022-07-25T04:35:37.965Z,21.46
2022-07-25T04:36:40.120Z,21.50
2022-07-25T04:37:40.295Z,21.54
2022-07-25T04:38:39.585Z,21.54
2022-07-25T04:39:40.009Z,21.55
2022-07-25T04:40:40.166Z,21.58
2022-07-25T04:41:41.526Z,21.58
2022-07-25T04:42:41.714Z,21.60
2022-07-25T04:43:43.622Z,21.61
2022-07-25T04:44:41.476Z,21.64
2022-07-25T04:45:40.783Z,21.67
2022-07-25T04:46:41.157Z,21.70
2022-07-25T04:47:43.178Z,21.72
2022-07-25T04:48:41.552Z,21.76
2022-07-25T04:49:41.770Z,21.76
2022-07-25T04:50:42.002Z,21.75
2022-07-25T04:51:44.195Z,21.75
2022-07-25T04:52:42.491Z,21.75
2022-07-25T04:53:44.669Z,21.75
2022-07-25T04:54:42.969Z,21.80
2022-07-25T04:55:43.198Z,21.80
2022-07-25T04:56:45.516Z,21.82
2022-07-25T04:57:45.735Z,21.85
2022-07-25T04:58:45.916Z,21.91
2022-07-25T04:59:44.360Z,21.92
2022-07-25T05:00:44.752Z,21.93
2022-07-25T05:01:47.035Z,21.96
2022-07-25T05:02:45.331Z,22.00
2022-07-25T05:03:49.859Z,22.04
2022-07-25T05:04:45.778Z,22.07
2022-07-25T05:05:46.019Z,22.14
2022-07-25T05:06:46.293Z,22.18
2022-07-25T05:07:46.594Z,22.18
2022-07-25T05:08:48.764Z,22.20
2022-07-25T05:09:47.136Z,22.20
2022-07-25T05:10:47.426Z,22.20
2022-07-25T05:11:55.643Z,22.25
2022-07-25T05:12:49.014Z,22.23
2022-07-25T05:13:50.247Z,22.23
2022-07-25T05:14:50.378Z,22.23
2022-07-25T05:15:48.865Z,22.25
2022-07-25T05:16:49.235Z,22.25
2022-07-25T05:17:49.510Z,22.23
2022-07-25T05:18:49.811Z,22.22
2022-07-25T05:19:51.985Z,22.25
2022-07-25T05:20:50.376Z,22.25
2022-07-25T05:21:50.655Z,22.23
2022-07-25T05:22:52.850Z,22.26
2022-07-25T05:23:53.016Z,22.28
2022-07-25T05:24:51.456Z,22.29
2022-07-25T05:25:51.698Z,22.29
2022-07-25T05:26:52.905Z,22.32
2022-07-25T05:27:53.059Z,22.36
2022-07-25T05:28:54.408Z,22.36
2022-07-25T05:29:52.781Z,22.39
2022-07-25T05:30:53.023Z,22.44
2022-07-25T05:31:53.379Z,22.47
2022-07-25T05:32:54.520Z,22.47
2022-07-25T05:33:55.674Z,22.45
2022-07-25T05:34:55.885Z,22.45
2022-07-25T05:35:56.063Z,22.48
2022-07-25T05:36:56.248Z,22.50
2022-07-25T05:37:57.915Z,22.51
2022-07-25T05:38:57.146Z,22.48
2022-07-25T05:39:57.299Z,22.47
2022-07-25T05:40:57.485Z,22.50
2022-07-25T05:41:57.655Z,22.57
2022-07-25T05:43:02.936Z,22.62
2022-07-25T05:43:59.587Z,22.68
2022-07-25T05:44:58.766Z,22.75
2022-07-25T05:45:58.947Z,22.69
2022-07-25T05:46:59.282Z,22.59
2022-07-25T05:47:59.320Z,22.43
2022-07-25T05:49:00.134Z,22.29
2022-07-25T05:50:00.227Z,22.28
2022-07-25T05:51:00.423Z,22.30
2022-07-25T05:52:00.605Z,22.44
2022-07-25T05:52:59.360Z,22.45
2022-07-25T05:54:01.549Z,22.43
2022-07-25T05:55:01.733Z,22.45
2022-07-25T05:56:01.875Z,22.55
2022-07-25T05:57:00.528Z,22.72
2022-07-25T05:58:02.570Z,22.72
2022-07-25T05:59:03.046Z,22.73
2022-07-25T06:00:01.435Z,22.76
2022-07-25T06:01:01.749Z,22.73
2022-07-25T06:02:02.239Z,22.84
2022-07-25T06:03:06.329Z,22.96
2022-07-25T06:04:04.675Z,22.99
2022-07-25T06:05:04.643Z,22.81
2022-07-25T06:06:04.791Z,22.66
2022-07-25T06:07:05.479Z,22.55
2022-07-25T06:08:06.887Z,22.50
2022-07-25T06:09:07.849Z,22.47
2022-07-25T06:10:04.398Z,22.45
2022-07-25T06:11:06.591Z,22.50
2022-07-25T06:12:05.032Z,22.53
2022-07-25T06:13:09.195Z,22.62
2022-07-25T06:14:07.618Z,22.66
2022-07-25T06:15:05.913Z,22.62
2022-07-25T06:16:08.147Z,22.60
2022-07-25T06:17:06.490Z,22.65
2022-07-25T06:18:08.678Z,22.68
2022-07-25T06:19:08.845Z,22.69
2022-07-25T06:20:07.359Z,22.76
2022-07-25T06:21:09.545Z,22.81
2022-07-25T06:22:07.937Z,22.81
2022-07-25T06:23:10.190Z,22.85
2022-07-25T06:24:10.337Z,22.81
2022-07-25T06:25:12.746Z,22.85
2022-07-25T06:26:09.123Z,22.85
2022-07-25T06:27:11.304Z,22.87
2022-07-25T06:28:12.650Z,22.80
2022-07-25T06:29:11.017Z,22.81
2022-07-25T06:30:19.131Z,22.78
2022-07-25T06:31:11.623Z,22.78
2022-07-25T06:32:12.761Z,22.80
2022-07-25T06:33:12.631Z,22.84
2022-07-25T06:34:11.525Z,22.84
2022-07-25T06:35:11.689Z,22.90
2022-07-25T06:36:13.858Z,22.93
2022-07-25T06:37:13.061Z,22.96
2022-07-25T06:38:14.499Z,22.98
2022-07-25T06:39:12.907Z,22.98
2022-07-25T06:40:13.210Z,23.00
2022-07-25T06:41:15.401Z,23.03
2022-07-25T06:42:13.795Z,23.06
2022-07-25T06:43:17.958Z,23.09
2022-07-25T06:44:14.369Z,23.13
2022-07-25T06:45:14.713Z,23.15
2022-07-25T06:46:14.971Z,23.17
2022-07-25T06:47:15.259Z,23.17
2022-07-25T06:48:17.441Z,23.17
2022-07-25T06:49:15.855Z,23.17
2022-07-25T06:50:16.152Z,23.17
2022-07-25T06:51:16.483Z,23.20
2022-07-25T06:52:16.795Z,23.17
2022-07-25T06:53:18.979Z,23.12
2022-07-25T06:54:17.370Z,23.13
2022-07-25T06:55:17.694Z,23.15
2022-07-25T06:56:18.013Z,23.18
2022-07-25T06:57:20.189Z,23.21
2022-07-25T06:58:20.357Z,23.18
2022-07-25T06:59:18.809Z,23.20
2022-07-25T07:00:19.128Z,23.18
2022-07-25T07:01:19.516Z,23.20
2022-07-25T07:02:19.699Z,23.18
2022-07-25T07:03:21.952Z,23.23
2022-07-25T07:04:20.299Z,23.23
2022-07-25T07:05:20.610Z,23.20
2022-07-25T07:06:20.923Z,23.18
2022-07-25T07:07:23.098Z,23.23
2022-07-25T07:08:23.257Z,23.23
2022-07-25T07:09:23.484Z,23.23
2022-07-25T07:10:23.740Z,23.21
2022-07-25T07:11:23.846Z,23.23
2022-07-25T07:12:24.016Z,23.24
2022-07-25T07:13:24.535Z,23.21
2022-07-25T07:14:24.959Z,23.21
2022-07-25T07:15:25.142Z,23.21
2022-07-25T07:16:25.360Z,23.23
2022-07-25T07:17:25.495Z,23.21
2022-07-25T07:18:26.163Z,23.31
2022-07-25T07:19:26.347Z,23.39
2022-07-25T07:20:26.526Z,23.40
2022-07-25T07:21:26.681Z,23.50
2022-07-25T07:22:27.373Z,23.61
2022-07-25T07:23:28.941Z,23.78
2022-07-25T07:24:26.023Z,23.78
2022-07-25T07:25:28.344Z,23.92
2022-07-25T07:26:26.583Z,24.14
2022-07-25T07:27:26.922Z,24.20
2022-07-25T07:28:27.227Z,24.24
2022-07-25T07:29:29.547Z,24.23
2022-07-25T07:30:58.696Z,24.20
2022-07-25T07:31:31.103Z,24.10
2022-07-25T07:32:28.365Z,24.10
2022-07-25T07:33:28.677Z,24.10
2022-07-25T07:34:28.999Z,24.33
2022-07-25T07:35:29.314Z,24.76
2022-07-25T07:36:32.507Z,24.77
2022-07-25T07:37:35.803Z,24.60
2022-07-25T07:38:31.236Z,24.58
2022-07-25T07:39:32.398Z,24.53
2022-07-25T07:40:32.585Z,24.48
2022-07-25T07:41:32.791Z,24.76
2022-07-25T07:42:32.970Z,25.07
2022-07-25T07:43:33.620Z,25.38
2022-07-25T07:44:33.816Z,25.91
2022-07-25T07:45:33.985Z,25.70
2022-07-25T07:46:34.217Z,25.62
2022-07-25T07:47:34.873Z,25.35
2022-07-25T07:48:33.256Z,25.16
2022-07-25T07:49:37.088Z,25.14
2022-07-25T07:50:35.594Z,25.59
2022-07-25T07:51:35.776Z,26.05
2022-07-25T07:52:35.971Z,26.18
2022-07-25T07:53:36.815Z,26.47
2022-07-25T07:54:34.960Z,26.55
2022-07-25T07:55:37.136Z,26.60
2022-07-25T07:56:37.324Z,26.74
2022-07-25T07:57:37.506Z,26.85
2022-07-25T07:58:37.695Z,26.97
2022-07-25T07:59:36.478Z,26.75
2022-07-25T08:00:38.655Z,26.43
2022-07-25T08:01:38.876Z,25.91
2022-07-25T08:02:39.071Z,25.59
2022-07-25T08:03:37.720Z,25.41
2022-07-25T08:04:39.917Z,25.58
2022-07-25T08:05:40.088Z,26.09
2022-07-25T08:06:40.246Z,26.56
2022-07-25T08:07:40.407Z,26.23
2022-07-25T08:08:39.170Z,26.40
2022-07-25T08:09:39.466Z,26.53
2022-07-25T08:10:41.660Z,27.03
2022-07-25T08:11:39.967Z,27.51
2022-07-25T08:12:42.157Z,27.64
2022-07-25T08:13:40.462Z,27.65
2022-07-25T08:14:42.663Z,27.26
2022-07-25T08:15:42.880Z,27.29
2022-07-25T08:16:43.034Z,27.39
2022-07-25T08:17:41.587Z,27.77
2022-07-25T08:18:42.788Z,28.29
2022-07-25T08:19:42.099Z,28.23
2022-07-25T08:20:44.270Z,28.32
2022-07-25T08:21:47.166Z,28.41
2022-07-25T08:22:42.846Z,29.01
2022-07-25T08:23:44.106Z,28.64
2022-07-25T08:24:43.390Z,28.12
2022-07-25T08:25:45.312Z,28.07
2022-07-25T08:26:45.519Z,27.95
2022-07-25T08:27:44.201Z,27.82
2022-07-25T08:28:46.448Z,27.86
2022-07-25T08:29:44.728Z,27.75
2022-07-25T08:30:44.968Z,27.27
2022-07-25T08:31:47.233Z,27.68
2022-07-25T08:32:45.557Z,28.05
2022-07-25T08:33:46.721Z,28.11
2022-07-25T08:34:46.225Z,28.29
2022-07-25T08:35:46.341Z,28.26
2022-07-25T08:36:48.527Z,28.10
2022-07-25T08:37:46.839Z,27.89
2022-07-25T08:38:48.042Z,27.73
2022-07-25T08:39:47.341Z,27.63
2022-07-25T08:40:47.593Z,27.47
2022-07-25T08:41:49.772Z,27.49
2022-07-25T08:42:48.089Z,27.51
2022-07-25T08:43:49.803Z,27.47
2022-07-25T08:44:49.508Z,27.44
2022-07-25T08:45:49.930Z,27.37
2022-07-25T08:46:51.193Z,27.32
2022-07-25T08:47:50.506Z,27.39
2022-07-25T08:48:49.889Z,27.44
2022-07-25T08:49:50.090Z,27.58
2022-07-25T08:50:50.333Z,27.55
2022-07-25T08:51:51.059Z,27.55
2022-07-25T08:52:50.831Z,27.29
2022-07-25T08:53:51.982Z,27.33
2022-07-25T08:54:51.502Z,27.35
2022-07-25T08:55:51.745Z,27.27
2022-07-25T08:56:52.911Z,27.29
2022-07-25T08:57:52.205Z,27.36
2022-07-25T08:58:53.279Z,27.40
2022-07-25T08:59:52.767Z,27.44
2022-07-25T09:00:53.005Z,27.55
2022-07-25T09:01:55.291Z,27.82
2022-07-25T09:02:55.463Z,27.93
2022-07-25T09:03:54.859Z,28.12
2022-07-25T09:04:54.149Z,28.15
2022-07-25T09:05:56.309Z,28.04
2022-07-25T09:06:56.489Z,27.89
2022-07-25T09:07:56.671Z,27.55
2022-07-25T09:08:56.163Z,27.40
2022-07-25T09:09:55.476Z,27.40
2022-07-25T09:10:55.702Z,27.58
2022-07-25T09:11:55.942Z,27.85
2022-07-25T09:12:58.121Z,27.95
2022-07-25T09:13:57.481Z,28.45
2022-07-25T09:14:58.627Z,28.78
2022-07-25T09:15:57.056Z,29.16
2022-07-25T09:16:57.273Z,29.47
2022-07-25T09:17:59.463Z,29.71
2022-07-25T09:18:59.826Z,29.87
2022-07-25T09:19:58.141Z,29.94
2022-07-25T09:20:58.362Z,29.90
2022-07-25T09:21:58.605Z,29.59
2022-07-25T09:22:59.799Z,29.35
2022-07-25T09:24:01.120Z,29.23
2022-07-25T09:25:01.169Z,29.16
2022-07-25T09:26:01.347Z,29.24
2022-07-25T09:27:02.018Z,29.54
2022-07-25T09:28:02.185Z,29.79
2022-07-25T09:29:04.379Z,30.10
2022-07-25T09:30:02.600Z,29.86
2022-07-25T09:31:03.306Z,30.05
2022-07-25T09:32:03.414Z,30.16
2022-07-25T09:33:03.578Z,30.46
2022-07-25T09:34:05.951Z,30.50
2022-07-25T09:35:03.927Z,30.32
2022-07-25T09:36:04.609Z,30.46
2022-07-25T09:37:04.798Z,30.27
2022-07-25T09:38:04.980Z,30.31
2022-07-25T09:39:07.162Z,30.16
2022-07-25T09:40:05.882Z,29.72
2022-07-25T09:41:04.333Z,29.93
2022-07-25T09:42:04.585Z,30.32
2022-07-25T09:43:04.843Z,30.48
2022-07-25T09:44:06.866Z,30.19
2022-07-25T09:45:07.290Z,29.87
2022-07-25T09:46:05.701Z,29.45
2022-07-25T09:47:05.912Z,29.17
2022-07-25T09:48:08.094Z,29.13
2022-07-25T09:49:08.499Z,29.38
2022-07-25T09:50:08.612Z,29.29
2022-07-25T09:51:08.822Z,28.75
2022-07-25T09:52:08.953Z,28.44
2022-07-25T09:53:09.119Z,28.51
2022-07-25T09:54:09.250Z,28.89
2022-07-25T09:55:09.546Z,29.27
2022-07-25T09:56:10.199Z,29.66
2022-07-25T09:57:10.379Z,29.57
2022-07-25T09:58:10.569Z,28.89
2022-07-25T09:59:12.750Z,28.17
2022-07-25T10:00:14.944Z,28.25
2022-07-25T10:01:11.009Z,28.22
2022-07-25T10:02:13.243Z,28.05
2022-07-25T10:03:12.437Z,27.74
2022-07-25T10:04:13.671Z,27.44
2022-07-25T10:05:12.775Z,27.39
2022-07-25T10:06:12.918Z,27.68
2022-07-25T10:07:13.609Z,27.71
2022-07-25T10:08:13.791Z,27.80
2022-07-25T10:09:15.234Z,27.77
2022-07-25T10:10:14.189Z,27.68
2022-07-25T10:11:14.892Z,27.77
2022-07-25T10:12:15.072Z,27.82
2022-07-25T10:13:15.283Z,27.68
2022-07-25T10:14:16.806Z,27.71
2022-07-25T10:15:14.130Z,27.63
2022-07-25T10:16:14.373Z,27.39
2022-07-25T10:17:16.623Z,27.32
2022-07-25T10:18:14.952Z,27.49
2022-07-25T10:19:19.116Z,27.65
2022-07-25T10:20:15.461Z,27.37
2022-07-25T10:21:28.033Z,27.33
2022-07-25T10:22:34.297Z,27.32
2022-07-25T10:23:17.355Z,27.45
2022-07-25T10:24:19.689Z,27.78
2022-07-25T10:25:16.893Z,28.26
2022-07-25T10:26:19.074Z,28.57
2022-07-25T10:27:17.423Z,29.04
2022-07-25T10:28:19.588Z,29.10
2022-07-25T10:29:18.944Z,28.41
2022-07-25T10:30:18.253Z,28.27
2022-07-25T10:31:20.532Z,28.29
2022-07-25T10:32:22.072Z,28.04
2022-07-25T10:33:20.801Z,27.67
2022-07-25T10:34:20.256Z,27.49
2022-07-25T10:35:19.691Z,27.17
2022-07-25T10:36:21.881Z,27.20
2022-07-25T10:37:20.220Z,26.93
2022-07-25T10:38:22.384Z,26.68
2022-07-25T10:39:21.570Z,26.51
2022-07-25T10:40:21.000Z,26.34
2022-07-25T10:41:21.254Z,26.34
2022-07-25T10:42:21.492Z,26.19
2022-07-25T10:43:23.688Z,26.22
2022-07-25T10:44:22.959Z,26.26
2022-07-25T10:45:23.722Z,26.37
2022-07-25T10:46:24.023Z,26.22
2022-07-25T10:47:24.740Z,26.33
2022-07-25T10:48:24.986Z,26.55
2022-07-25T10:49:31.164Z,26.88
2022-07-25T10:50:53.305Z,27.48
2022-07-25T10:51:24.899Z,27.59
2022-07-25T10:52:26.131Z,27.49
2022-07-25T10:53:26.312Z,27.86
2022-07-25T10:54:25.766Z,28.26
2022-07-25T10:55:26.950Z,28.02
2022-07-25T10:56:25.388Z,27.27
2022-07-25T10:57:29.794Z,26.95
2022-07-25T10:58:26.901Z,27.11
2022-07-25T10:59:26.198Z,27.65
2022-07-25T11:00:26.448Z,28.08
2022-07-25T11:01:26.769Z,27.93
2022-07-25T11:02:30.887Z,27.10
2022-07-25T11:03:27.211Z,26.56
2022-07-25T11:04:27.455Z,26.52
2022-07-25T11:05:29.664Z,26.45
2022-07-25T11:06:27.964Z,26.43
2022-07-25T11:07:28.214Z,26.16
2022-07-25T11:08:30.384Z,25.91
2022-07-25T11:09:28.769Z,25.59
2022-07-25T11:10:30.882Z,25.32
2022-07-25T11:11:29.192Z,25.14
2022-07-25T11:12:29.429Z,24.88
2022-07-25T11:13:31.611Z,24.74
2022-07-25T11:14:29.913Z,24.51
2022-07-25T11:15:32.104Z,24.38
2022-07-25T11:16:32.357Z,24.24
2022-07-25T11:17:32.478Z,24.16
2022-07-25T11:18:32.665Z,24.08
2022-07-25T11:19:33.092Z,24.06
2022-07-25T11:20:33.529Z,23.92
2022-07-25T11:21:33.688Z,23.87
2022-07-25T11:22:33.062Z,23.84
2022-07-25T11:23:32.367Z,23.86
2022-07-25T11:24:32.969Z,23.84
2022-07-25T11:25:32.878Z,23.87
2022-07-25T11:26:35.055Z,23.87
2022-07-25T11:27:34.841Z,23.87
2022-07-25T11:28:33.652Z,23.88
2022-07-25T11:29:35.838Z,23.93
2022-07-25T11:30:36.016Z,24.05
2022-07-25T11:31:34.639Z,24.14
2022-07-25T11:32:38.704Z,24.14
2022-07-25T11:33:38.618Z,24.08
2022-07-25T11:34:37.210Z,24.03
2022-07-25T11:35:37.401Z,23.98
2022-07-25T11:36:37.574Z,23.96
2022-07-25T11:37:39.044Z,23.84
2022-07-25T11:38:37.943Z,23.86
2022-07-25T11:39:38.635Z,23.83
2022-07-25T11:40:38.815Z,23.87
2022-07-25T11:41:38.991Z,23.88
2022-07-25T11:42:39.586Z,23.87
2022-07-25T11:43:39.375Z,23.78
2022-07-25T11:44:44.125Z,23.63
2022-07-25T11:45:41.287Z,23.62
2022-07-25T11:46:40.408Z,23.46
2022-07-25T11:47:41.928Z,23.32
2022-07-25T11:48:40.852Z,23.21
2022-07-25T11:49:41.518Z,23.21
2022-07-25T11:50:40.796Z,23.23
2022-07-25T11:51:41.943Z,23.27
2022-07-25T11:52:42.214Z,23.24
2022-07-25T11:53:42.336Z,23.36
2022-07-25T11:54:42.520Z,23.43
2022-07-25T11:55:43.344Z,23.40
2022-07-25T11:56:43.900Z,23.43
2022-07-25T11:57:43.191Z,23.36
2022-07-25T11:58:43.931Z,23.39
2022-07-25T11:59:44.099Z,23.43
2022-07-25T12:00:44.287Z,23.46
2022-07-25T12:01:42.840Z,23.48
2022-07-25T12:02:44.168Z,23.63
2022-07-25T12:03:45.378Z,23.74
2022-07-25T12:04:45.501Z,23.91
2022-07-25T12:05:45.690Z,24.08
2022-07-25T12:06:45.863Z,24.14
2022-07-25T12:07:45.376Z,24.01
2022-07-25T12:08:46.750Z,23.93
2022-07-25T12:09:46.910Z,23.95
2022-07-25T12:10:47.193Z,23.99
2022-07-25T12:11:47.252Z,23.93
2022-07-25T12:12:47.408Z,24.02
2022-07-25T12:13:48.137Z,24.02
2022-07-25T12:14:48.324Z,23.92
2022-07-25T12:15:48.503Z,23.69
2022-07-25T12:16:48.729Z,23.62
2022-07-25T12:17:50.817Z,23.58
2022-07-25T12:18:47.644Z,23.56
2022-07-25T12:19:49.823Z,23.34
2022-07-25T12:20:50.017Z,23.12
2022-07-25T12:21:50.196Z,23.12
2022-07-25T12:22:51.619Z,23.20
2022-07-25T12:23:49.073Z,23.28
2022-07-25T12:24:51.258Z,23.31
2022-07-25T12:25:49.578Z,23.40
2022-07-25T12:26:49.803Z,23.43
2022-07-25T12:27:53.932Z,23.61
2022-07-25T12:28:50.389Z,23.76
2022-07-25T12:29:52.568Z,23.77
2022-07-25T12:30:56.258Z,23.65
2022-07-25T12:31:52.105Z,23.66
2022-07-25T12:32:55.253Z,23.61
2022-07-25T12:33:53.473Z,23.48
2022-07-25T12:34:52.027Z,23.50
2022-07-25T12:35:54.203Z,23.41
2022-07-25T12:36:52.514Z,23.21
2022-07-25T12:37:54.254Z,23.20
2022-07-25T12:38:54.983Z,23.21
2022-07-25T12:39:55.163Z,23.20
2022-07-25T12:40:53.593Z,23.20
2022-07-25T12:41:55.768Z,23.21
2022-07-25T12:42:57.126Z,23.13
2022-07-25T12:43:56.140Z,23.08
2022-07-25T12:44:54.630Z,23.06
2022-07-25T12:45:54.956Z,23.12
2022-07-25T12:46:57.058Z,23.21
2022-07-25T12:47:58.449Z,23.23
2022-07-25T12:48:55.807Z,23.40
2022-07-25T12:49:56.057Z,23.37
2022-07-25T12:50:58.246Z,23.41
2022-07-25T12:51:59.878Z,23.37
2022-07-25T12:52:59.751Z,23.43
2022-07-25T12:53:58.794Z,23.34
2022-07-25T12:54:57.350Z,23.24
2022-07-25T12:56:00.776Z,23.05